createdAt,value
2022-10-25T00:03:20.153Z,100165.16
2022-10-25T00:07:21.691Z,100174.34
2022-10-25T00:11:26.479Z,100172.94
2022-10-25T00:15:28.334Z,100177.00
2022-10-25T00:19:29.847Z,100170.19
2022-10-25T00:23:31.731Z,100175.69
2022-10-25T00:27:34.241Z,100183.38
2022-10-25T00:31:37.340Z,100185.94
2022-10-25T00:35:38.952Z,100191.19
2022-10-25T00:39:40.485Z,100182.13
2022-10-25T00:43:44.740Z,100187.66
2022-10-25T00:47:48.547Z,100185.53
2022-10-25T00:52:01.925Z,100193.69
2022-10-25T00:56:38.213Z,100184.13
2022-10-25T01:00:39.874Z,100199.94
2022-10-25T01:04:42.953Z,100197.97
2022-10-25T01:08:46.592Z,100189.66
2022-10-25T01:12:51.281Z,100182.31
2022-10-25T01:17:12.826Z,100184.56
2022-10-25T01:21:36.473Z,100175.19
2022-10-25T01:26:15.834Z,100173.56
2022-10-25T01:30:26.016Z,100168.56
2022-10-25T01:34:48.026Z,100172.59
2022-10-25T01:38:59.880Z,100175.84
2022-10-25T01:43:05.386Z,100176.44
2022-10-25T01:47:15.348Z,100177.84
2022-10-25T01:51:18.617Z,100175.72
2022-10-25T01:55:23.483Z,100165.78
2022-10-25T01:59:43.873Z,100173.28
2022-10-25T02:03:55.205Z,100176.91
2022-10-25T02:08:17.036Z,100179.03
2022-10-25T02:12:29.156Z,100176.78
2022-10-25T02:16:57.525Z,100182.09
2022-10-25T02:21:01.795Z,100182.09
2022-10-25T02:25:06.359Z,100177.63
2022-10-25T02:29:10.844Z,100181.22
2022-10-25T02:33:12.431Z,100178.09
2022-10-25T02:37:13.929Z,100185.66
2022-10-25T02:41:16.433Z,100175.41
2022-10-25T02:45:17.997Z,100181.25
2022-10-25T02:49:19.693Z,100177.56
2022-10-25T02:53:21.181Z,100177.75
2022-10-25T02:57:22.943Z,100182.31
2022-10-25T03:01:25.667Z,100182.75
2022-10-25T03:05:27.219Z,100189.03
2022-10-25T03:09:28.709Z,100193.94
2022-10-25T03:13:30.315Z,100193.38
2022-10-25T03:17:31.871Z,100192.13
2022-10-25T03:21:35.696Z,100196.81
2022-10-25T03:25:40.980Z,100202.03
2022-10-25T03:29:42.590Z,100203.00
2022-10-25T03:33:44.414Z,100208.69
2022-10-25T03:37:48.731Z,100207.22
2022-10-25T03:41:50.597Z,100210.31
2022-10-25T03:45:52.235Z,100216.97
2022-10-25T03:49:53.740Z,100212.00
2022-10-25T03:53:55.230Z,100221.09
2022-10-25T03:57:56.777Z,100222.94
2022-10-25T04:01:58.486Z,100226.16
2022-10-25T04:06:00.042Z,100224.69
2022-10-25T04:10:02.077Z,100238.09
2022-10-25T04:14:03.646Z,100237.47
2022-10-25T04:18:05.940Z,100240.69
2022-10-25T04:22:07.492Z,100246.56
2022-10-25T04:26:09.067Z,100246.34
2022-10-25T04:30:11.375Z,100256.34
2022-10-25T04:34:12.972Z,100249.97
2022-10-25T04:38:14.468Z,100241.59
2022-10-25T04:42:17.482Z,100249.66
2022-10-25T04:46:20.053Z,100242.31
2022-10-25T04:50:21.631Z,100249.72
2022-10-25T04:54:23.192Z,100256.75
2022-10-25T04:58:28.829Z,100258.41
2022-10-25T05:02:32.958Z,100256.09
2022-10-25T05:06:34.561Z,100264.50
2022-10-25T05:10:36.366Z,100261.75
2022-10-25T05:14:38.006Z,100263.81
2022-10-25T05:18:39.538Z,100262.94
2022-10-25T05:22:41.221Z,100270.44
2022-10-25T05:26:42.938Z,100275.41
2022-10-25T05:30:44.679Z,100273.25
2022-10-25T05:34:46.349Z,100288.75
2022-10-25T05:38:48.436Z,100284.78
2022-10-25T05:42:49.963Z,100297.78
2022-10-25T05:46:51.777Z,100306.03
2022-10-25T05:50:59.352Z,100310.38
2022-10-25T05:55:10.569Z,100309.75
2022-10-25T05:59:14.624Z,100305.47
2022-10-25T06:03:16.298Z,100311.94
2022-10-25T06:07:17.953Z,100317.59
2022-10-25T06:11:19.841Z,100322.69
2022-10-25T06:15:21.464Z,100323.69
2022-10-25T06:19:23.153Z,100326.72
2022-10-25T06:23:24.945Z,100331.13
2022-10-25T06:27:27.328Z,100344.47
2022-10-25T06:31:30.470Z,100341.16
2022-10-25T06:35:33.137Z,100345.47
2022-10-25T06:39:34.663Z,100339.06
2022-10-25T06:43:36.267Z,100345.94
2022-10-25T06:47:37.822Z,100348.59
2022-10-25T06:51:39.467Z,100344.94
2022-10-25T06:55:42.421Z,100357.25
2022-10-25T06:59:45.766Z,100352.75
2022-10-25T07:03:50.357Z,100362.00
2022-10-25T07:07:52.503Z,100360.78
2022-10-25T07:11:54.042Z,100364.97
2022-10-25T07:16:04.165Z,100357.56
2022-10-25T07:20:06.327Z,100356.03
2022-10-25T07:24:11.119Z,100358.94
2022-10-25T07:28:12.772Z,100370.28
2022-10-25T07:32:14.567Z,100370.81
2022-10-25T07:36:16.324Z,100372.16
2022-10-25T07:40:17.816Z,100380.69
2022-10-25T07:44:24.772Z,100377.53
2022-10-25T07:48:27.233Z,100361.44
2022-10-25T07:52:28.801Z,100370.28
2022-10-25T07:56:30.387Z,100367.50
2022-10-25T08:00:32.752Z,100364.50
2022-10-25T08:04:34.299Z,100368.47
2022-10-25T08:08:36.530Z,100377.69
2022-10-25T08:12:38.138Z,100371.31
2022-10-25T08:16:39.751Z,100371.38
2022-10-25T08:21:01.372Z,100374.72
2022-10-25T08:25:05.285Z,100383.47
2022-10-25T08:29:06.950Z,100385.72
2022-10-25T08:33:11.758Z,100379.34
2022-10-25T08:37:13.747Z,100388.75
2022-10-25T08:41:26.855Z,100377.44
2022-10-25T08:45:58.371Z,100385.50
2022-10-25T08:50:06.623Z,100394.88
2022-10-25T08:54:19.887Z,100387.50
2022-10-25T08:58:28.387Z,100395.00
2022-10-25T09:02:42.243Z,100400.22
2022-10-25T09:06:47.914Z,100398.78
2022-10-25T09:10:58.589Z,100402.41
2022-10-25T09:15:08.870Z,100399.31
2022-10-25T09:19:24.146Z,100404.59
2022-10-25T09:23:31.229Z,100409.91
2022-10-25T09:27:39.748Z,100408.56
2022-10-25T09:31:48.848Z,100410.97
2022-10-25T09:35:55.321Z,100406.25
2022-10-25T09:40:01.319Z,100415.50
2022-10-25T09:44:13.512Z,100406.63
2022-10-25T09:48:28.880Z,100420.94
2022-10-25T09:53:03.104Z,100424.00
2022-10-25T09:57:04.792Z,100424.59
2022-10-25T10:01:20.052Z,100432.84
2022-10-25T10:05:22.754Z,100425.66
2022-10-25T10:09:28.338Z,100439.34
2022-10-25T10:13:39.090Z,100434.88
2022-10-25T10:17:40.709Z,100431.84
2022-10-25T10:21:48.781Z,100426.53
2022-10-25T10:25:50.470Z,100440.13
2022-10-25T10:29:59.990Z,100431.31
2022-10-25T10:34:01.554Z,100438.19
2022-10-25T10:38:21.120Z,100435.22
2022-10-25T10:42:32.791Z,100440.59
2022-10-25T10:46:34.563Z,100435.09
2022-10-25T10:50:36.402Z,100436.66
2022-10-25T10:54:47.330Z,100434.34
2022-10-25T10:58:53.419Z,100439.59
2022-10-25T11:07:13.920Z,100439.06
2022-10-25T11:11:22.942Z,100439.19
2022-10-25T11:15:24.996Z,100457.66
2022-10-25T11:19:43.842Z,100449.25
2022-10-25T11:23:48.640Z,100441.03
2022-10-25T11:28:14.850Z,100449.66
2022-10-25T11:32:16.729Z,100448.19
2022-10-25T11:36:24.125Z,100442.03
2022-10-25T11:40:32.781Z,100453.78
2022-10-25T11:44:42.969Z,100456.94
2022-10-25T11:48:54.235Z,100454.59
2022-10-25T11:53:14.187Z,100451.13
2022-10-25T11:57:34.522Z,100452.78
2022-10-25T12:02:00.987Z,100466.19
2022-10-25T12:06:40.300Z,100460.47
2022-10-25T12:10:47.914Z,100450.13
2022-10-25T12:14:56.046Z,100453.22
2022-10-25T12:19:24.546Z,100453.19
2022-10-25T12:23:29.106Z,100458.50
2022-10-25T12:27:32.624Z,100449.13
2022-10-25T12:31:50.677Z,100443.53
2022-10-25T12:35:58.510Z,100457.72
2022-10-25T12:40:00.058Z,100460.16
2022-10-25T12:44:37.478Z,100460.69
2022-10-25T12:49:13.696Z,100455.66
2022-10-25T12:54:09.598Z,100465.75
2022-10-25T12:58:17.243Z,100467.88
2022-10-25T13:02:33.979Z,100454.28
2022-10-25T13:06:38.900Z,100460.91
2022-10-25T13:10:43.858Z,100451.50
2022-10-25T13:14:50.634Z,100445.44
2022-10-25T13:19:35.959Z,100447.44
2022-10-25T13:23:51.469Z,100460.72
2022-10-25T13:28:14.172Z,100457.56
2022-10-25T13:32:20.791Z,100461.28
2022-10-25T13:36:46.090Z,100458.09
2022-10-25T13:41:11.873Z,100460.81
2022-10-25T13:45:39.013Z,100447.56
2022-10-25T13:49:43.759Z,100458.94
2022-10-25T13:53:48.179Z,100454.72
2022-10-25T13:57:51.913Z,100461.25
2022-10-25T14:01:53.934Z,100466.22
2022-10-25T14:05:58.481Z,100451.50
2022-10-25T14:10:00.863Z,100465.81
2022-10-25T14:14:21.944Z,100471.84
2022-10-25T14:18:25.211Z,100467.78
2022-10-25T14:22:35.782Z,100473.78
2022-10-25T14:26:37.518Z,100468.94
2022-10-25T14:30:43.238Z,100477.56
2022-10-25T14:34:50.422Z,100474.38
2022-10-25T14:38:55.777Z,100485.41
2022-10-25T14:43:15.928Z,100480.34
2022-10-25T14:47:26.284Z,100479.97
2022-10-25T14:51:31.494Z,100472.34
2022-10-25T14:55:33.919Z,100472.28
2022-10-25T14:59:46.438Z,100469.06
2022-10-25T15:03:51.786Z,100469.00
2022-10-25T15:07:56.372Z,100471.88
2022-10-25T15:12:25.494Z,100471.66
2022-10-25T15:16:32.979Z,100479.25
2022-10-25T15:20:34.644Z,100484.53
2022-10-25T15:24:44.739Z,100477.63
2022-10-25T15:28:49.312Z,100477.34
2022-10-25T15:32:50.941Z,100484.00
2022-10-25T15:36:52.633Z,100476.03
2022-10-25T15:40:54.160Z,100470.03
2022-10-25T15:44:55.781Z,100471.97
2022-10-25T15:49:00.316Z,100470.22
2022-10-25T15:53:02.854Z,100471.06
2022-10-25T15:57:04.451Z,100474.63
2022-10-25T16:01:06.229Z,100484.81
2022-10-25T16:05:23.442Z,100487.63
2022-10-25T16:09:24.945Z,100488.19
2022-10-25T16:13:36.925Z,100478.47
2022-10-25T16:17:41.779Z,100480.84
2022-10-25T16:21:44.136Z,100483.91
2022-10-25T16:25:45.882Z,100485.16
2022-10-25T16:29:47.398Z,100484.31
2022-10-25T16:33:49.032Z,100497.72
2022-10-25T16:37:51.846Z,100503.69
2022-10-25T16:41:55.371Z,100511.00
2022-10-25T16:45:56.876Z,100509.75
2022-10-25T16:49:58.389Z,100513.59
2022-10-25T16:53:59.963Z,100517.13
2022-10-25T16:58:01.696Z,100523.53
2022-10-25T17:02:04.022Z,100540.50
2022-10-25T17:06:22.297Z,100532.44
2022-10-25T17:10:28.607Z,100541.50
2022-10-25T17:14:30.457Z,100540.09
2022-10-25T17:18:36.062Z,100545.97
2022-10-25T17:22:38.495Z,100551.22
2022-10-25T17:26:40.273Z,100553.72
2022-10-25T17:30:42.706Z,100561.16
2022-10-25T17:34:44.337Z,100559.06
2022-10-25T17:38:46.152Z,100566.75
2022-10-25T17:42:47.734Z,100568.47
2022-10-25T17:46:49.218Z,100569.34
2022-10-25T17:50:50.847Z,100568.47
2022-10-25T17:54:52.361Z,100562.50
2022-10-25T17:58:55.229Z,100572.53
2022-10-25T18:02:58.736Z,100574.56
2022-10-25T18:07:00.278Z,100567.34
2022-10-25T18:11:11.562Z,100573.84
2022-10-25T18:15:13.157Z,100575.13
2022-10-25T18:19:14.917Z,100573.22
2022-10-25T18:23:17.827Z,100576.31
2022-10-25T18:27:19.409Z,100587.03
2022-10-25T18:31:21.205Z,100584.19
2022-10-25T18:35:22.904Z,100581.09
2022-10-25T18:39:24.422Z,100577.22
2022-10-25T18:43:27.025Z,100576.78
2022-10-25T18:47:28.527Z,100577.41
2022-10-25T18:51:30.529Z,100573.09
2022-10-25T18:55:32.167Z,100576.84
2022-10-25T18:59:33.649Z,100584.16
2022-10-25T19:03:35.671Z,100588.94
2022-10-25T19:07:37.264Z,100583.91
2022-10-25T19:11:39.023Z,100581.47
2022-10-25T19:15:40.575Z,100579.28
2022-10-25T19:19:42.159Z,100577.47
2022-10-25T19:25:00.508Z,100570.66
2022-10-25T19:30:18.802Z,100583.19
2022-10-25T19:34:20.910Z,100586.06
2022-10-25T19:38:22.365Z,100583.81
2022-10-25T19:42:24.021Z,100584.97
2022-10-25T19:46:31.079Z,100582.78
2022-10-25T19:50:33.445Z,100579.22
2022-10-25T19:54:34.918Z,100587.88
2022-10-25T19:59:26.326Z,100593.31
2022-10-25T20:04:19.216Z,100599.91
2022-10-25T20:08:20.803Z,100599.81
2022-10-25T20:12:22.409Z,100600.00
2022-10-25T20:16:25.622Z,100595.44
2022-10-25T20:20:27.377Z,100604.19
2022-10-25T20:24:29.109Z,100613.44
2022-10-25T20:33:55.499Z,100604.69
2022-10-25T20:37:57.290Z,100608.84
2022-10-25T20:41:59.544Z,100607.13
2022-10-25T20:46:01.875Z,100600.47
2022-10-25T20:50:05.115Z,100612.88
2022-10-25T20:54:09.953Z,100617.44
2022-10-25T20:59:02.294Z,100608.69
2022-10-25T21:03:32.365Z,100612.84
2022-10-25T21:07:48.636Z,100616.50
2022-10-25T21:11:50.515Z,100609.38
2022-10-25T21:15:52.559Z,100614.44
2022-10-25T21:19:54.131Z,100613.69
2022-10-25T21:23:56.858Z,100626.47
2022-10-25T21:27:58.524Z,100620.66
2022-10-25T21:32:00.088Z,100620.06
2022-10-25T21:36:03.679Z,100631.88
2022-10-25T21:40:05.697Z,100628.72
2022-10-25T21:48:13.834Z,100622.22
2022-10-25T21:52:15.393Z,100634.84
2022-10-25T21:56:19.291Z,100635.44
2022-10-25T22:00:21.425Z,100634.66
2022-10-25T22:04:23.868Z,100622.31
2022-10-25T22:08:25.582Z,100627.19
2022-10-25T22:12:27.127Z,100625.06
2022-10-25T22:16:48.119Z,100638.22
2022-10-25T22:21:01.556Z,100631.66
2022-10-25T22:25:03.450Z,100633.72
2022-10-25T22:29:05.735Z,100628.03
2022-10-25T22:33:07.271Z,100639.84
2022-10-25T22:37:08.774Z,100638.25
2022-10-25T22:41:13.159Z,100634.69
2022-10-25T22:45:14.792Z,100632.53
2022-10-25T22:49:16.360Z,100631.59
2022-10-25T22:53:19.000Z,100627.34
2022-10-25T22:57:21.394Z,100623.94
2022-10-25T23:01:25.769Z,100636.91
2022-10-25T23:05:27.645Z,100631.72
2022-10-25T23:09:29.197Z,100629.56
2022-10-25T23:13:32.438Z,100628.97
2022-10-25T23:17:33.960Z,100641.59
2022-10-25T23:21:35.563Z,100633.72
2022-10-25T23:25:37.094Z,100631.44
2022-10-25T23:29:38.737Z,100632.25
2022-10-25T23:33:41.700Z,100631.31
2022-10-25T23:37:43.241Z,100624.47
2022-10-25T23:41:44.908Z,100617.50
2022-10-25T23:45:46.600Z,100627.50
2022-10-25T23:49:48.107Z,100625.69
2022-10-25T23:53:50.173Z,100629.59
2022-10-25T23:57:57.434Z,100633.16
